sensor_id;sensor_type;location;lat;lon;timestamp;P1;durP1;ratioP1;P2;durP2;ratioP2
41705;SDS011;27385;51.096;17.190;2023-05-07T00:00:24;6.80;;;1.80;;
41705;SDS011;27385;51.096;17.190;2023-05-07T00:03:15;8.60;;;2.30;;
41705;SDS011;27385;51.096;17.190;2023-05-07T00:05:46;10.90;;;2.20;;
41705;SDS011;27385;51.096;17.190;2023-05-07T00:08:17;6.00;;;1.60;;
41705;SDS011;27385;51.096;17.190;2023-05-07T00:10:49;8.70;;;1.90;;
41705;SDS011;27385;51.096;17.190;2023-05-07T00:13:20;8.20;;;2.30;;
41705;SDS011;27385;51.096;17.190;2023-05-07T00:15:51;7.50;;;1.80;;
41705;SDS011;27385;51.096;17.190;2023-05-07T00:18:21;5.90;;;1.70;;
41705;SDS011;27385;51.096;17.190;2023-05-07T00:20:53;9.70;;;1.90;;
41705;SDS011;27385;51.096;17.190;2023-05-07T00:23:24;5.90;;;1.50;;
41705;SDS011;27385;51.096;17.190;2023-05-07T00:25:55;6.80;;;1.90;;
41705;SDS011;27385;51.096;17.190;2023-05-07T00:28:26;6.40;;;1.50;;
41705;SDS011;27385;51.096;17.190;2023-05-07T00:30:59;6.30;;;1.60;;
41705;SDS011;27385;51.096;17.190;2023-05-07T00:33:29;5.50;;;1.40;;
41705;SDS011;27385;51.096;17.190;2023-05-07T00:36:00;7.00;;;1.90;;
41705;SDS011;27385;51.096;17.190;2023-05-07T00:38:31;8.00;;;1.70;;
41705;SDS011;27385;51.096;17.190;2023-05-07T00:41:02;6.30;;;1.60;;
41705;SDS011;27385;51.096;17.190;2023-05-07T00:43:33;6.40;;;1.50;;
41705;SDS011;27385;51.096;17.190;2023-05-07T00:46:04;7.00;;;2.00;;
41705;SDS011;27385;51.096;17.190;2023-05-07T00:48:35;5.60;;;1.50;;
41705;SDS011;27385;51.096;17.190;2023-05-07T00:51:06;7.60;;;1.80;;
41705;SDS011;27385;51.096;17.190;2023-05-07T00:53:39;8.80;;;1.90;;
41705;SDS011;27385;51.096;17.190;2023-05-07T00:56:10;6.40;;;1.50;;
41705;SDS011;27385;51.096;17.190;2023-05-07T00:58:41;6.50;;;1.50;;
41705;SDS011;27385;51.096;17.190;2023-05-07T01:01:12;8.00;;;1.90;;
41705;SDS011;27385;51.096;17.190;2023-05-07T01:03:44;8.60;;;2.00;;
41705;SDS011;27385;51.096;17.190;2023-05-07T01:06:15;7.90;;;2.20;;
41705;SDS011;27385;51.096;17.190;2023-05-07T01:08:47;6.90;;;1.70;;
41705;SDS011;27385;51.096;17.190;2023-05-07T01:11:20;8.30;;;1.80;;
41705;SDS011;27385;51.096;17.190;2023-05-07T01:13:53;6.50;;;2.20;;
41705;SDS011;27385;51.096;17.190;2023-05-07T01:16:25;6.20;;;2.10;;
41705;SDS011;27385;51.096;17.190;2023-05-07T01:18:56;7.00;;;2.10;;
41705;SDS011;27385;51.096;17.190;2023-05-07T01:21:27;7.00;;;1.90;;
41705;SDS011;27385;51.096;17.190;2023-05-07T01:24:02;6.80;;;1.90;;
41705;SDS011;27385;51.096;17.190;2023-05-07T01:26:34;7.80;;;1.80;;
41705;SDS011;27385;51.096;17.190;2023-05-07T01:29:05;8.30;;;2.30;;
41705;SDS011;27385;51.096;17.190;2023-05-07T01:31:36;8.00;;;2.20;;
41705;SDS011;27385;51.096;17.190;2023-05-07T01:34:09;10.80;;;3.20;;
41705;SDS011;27385;51.096;17.190;2023-05-07T01:36:41;9.00;;;2.00;;
41705;SDS011;27385;51.096;17.190;2023-05-07T01:39:14;9.60;;;2.80;;
41705;SDS011;27385;51.096;17.190;2023-05-07T01:41:45;11.50;;;2.30;;
41705;SDS011;27385;51.096;17.190;2023-05-07T01:44:17;6.70;;;1.90;;
41705;SDS011;27385;51.096;17.190;2023-05-07T01:46:48;11.70;;;2.50;;
41705;SDS011;27385;51.096;17.190;2023-05-07T01:49:19;9.30;;;2.00;;
41705;SDS011;27385;51.096;17.190;2023-05-07T01:51:50;10.80;;;2.70;;
41705;SDS011;27385;51.096;17.190;2023-05-07T01:54:26;13.40;;;2.90;;
41705;SDS011;27385;51.096;17.190;2023-05-07T01:56:57;6.30;;;1.90;;
41705;SDS011;27385;51.096;17.190;2023-05-07T01:59:27;9.30;;;2.20;;
41705;SDS011;27385;51.096;17.190;2023-05-07T02:01:58;9.00;;;1.80;;
41705;SDS011;27385;51.096;17.190;2023-05-07T02:04:29;7.30;;;2.20;;
41705;SDS011;27385;51.096;17.190;2023-05-07T02:07:00;5.20;;;1.60;;
41705;SDS011;27385;51.096;17.190;2023-05-07T02:09:32;7.40;;;2.10;;
41705;SDS011;27385;51.096;17.190;2023-05-07T02:12:02;8.50;;;1.90;;
41705;SDS011;27385;51.096;17.190;2023-05-07T02:14:34;6.40;;;1.80;;
41705;SDS011;27385;51.096;17.190;2023-05-07T02:17:04;8.30;;;2.00;;
41705;SDS011;27385;51.096;17.190;2023-05-07T02:19:38;10.60;;;2.50;;
41705;SDS011;27385;51.096;17.190;2023-05-07T02:22:10;7.00;;;2.00;;
41705;SDS011;27385;51.096;17.190;2023-05-07T02:24:40;6.40;;;2.10;;
41705;SDS011;27385;51.096;17.190;2023-05-07T02:27:12;7.60;;;2.20;;
41705;SDS011;27385;51.096;17.190;2023-05-07T02:29:43;7.40;;;1.80;;
41705;SDS011;27385;51.096;17.190;2023-05-07T02:32:13;10.10;;;2.40;;
41705;SDS011;27385;51.096;17.190;2023-05-07T02:34:45;12.30;;;3.40;;
41705;SDS011;27385;51.096;17.190;2023-05-07T02:37:15;8.80;;;1.70;;
41705;SDS011;27385;51.096;17.190;2023-05-07T02:39:46;10.30;;;2.40;;
41705;SDS011;27385;51.096;17.190;2023-05-07T02:42:17;8.90;;;2.30;;
41705;SDS011;27385;51.096;17.190;2023-05-07T02:44:48;12.50;;;2.60;;
41705;SDS011;27385;51.096;17.190;2023-05-07T02:47:19;7.10;;;1.90;;
41705;SDS011;27385;51.096;17.190;2023-05-07T02:49:50;9.00;;;2.30;;
41705;SDS011;27385;51.096;17.190;2023-05-07T02:52:21;7.10;;;1.80;;
41705;SDS011;27385;51.096;17.190;2023-05-07T02:54:52;8.40;;;2.30;;
41705;SDS011;27385;51.096;17.190;2023-05-07T02:57:23;8.00;;;1.90;;
41705;SDS011;27385;51.096;17.190;2023-05-07T02:59:53;9.50;;;2.20;;
41705;SDS011;27385;51.096;17.190;2023-05-07T03:02:24;9.70;;;2.20;;
41705;SDS011;27385;51.096;17.190;2023-05-07T03:04:55;9.70;;;2.50;;
41705;SDS011;27385;51.096;17.190;2023-05-07T03:07:26;6.80;;;1.90;;
41705;SDS011;27385;51.096;17.190;2023-05-07T03:09:57;10.90;;;2.20;;
41705;SDS011;27385;51.096;17.190;2023-05-07T03:12:28;11.70;;;2.80;;
41705;SDS011;27385;51.096;17.190;2023-05-07T03:14:59;8.10;;;2.40;;
41705;SDS011;27385;51.096;17.190;2023-05-07T03:17:30;8.20;;;2.50;;
41705;SDS011;27385;51.096;17.190;2023-05-07T03:20:01;10.30;;;2.50;;
41705;SDS011;27385;51.096;17.190;2023-05-07T03:22:32;13.60;;;2.70;;
41705;SDS011;27385;51.096;17.190;2023-05-07T03:25:03;11.00;;;2.80;;
41705;SDS011;27385;51.096;17.190;2023-05-07T03:27:35;7.80;;;2.00;;
41705;SDS011;27385;51.096;17.190;2023-05-07T03:30:07;9.60;;;2.40;;
41705;SDS011;27385;51.096;17.190;2023-05-07T03:32:40;6.50;;;2.00;;
41705;SDS011;27385;51.096;17.190;2023-05-07T03:35:11;8.50;;;1.70;;
41705;SDS011;27385;51.096;17.190;2023-05-07T03:37:42;10.80;;;2.00;;
41705;SDS011;27385;51.096;17.190;2023-05-07T03:40:13;9.80;;;2.10;;
41705;SDS011;27385;51.096;17.190;2023-05-07T03:42:44;9.80;;;2.00;;
41705;SDS011;27385;51.096;17.190;2023-05-07T03:45:15;6.90;;;1.60;;
41705;SDS011;27385;51.096;17.190;2023-05-07T03:47:46;9.40;;;1.50;;
41705;SDS011;27385;51.096;17.190;2023-05-07T03:50:17;6.90;;;1.40;;
41705;SDS011;27385;51.096;17.190;2023-05-07T03:52:48;7.20;;;1.80;;
41705;SDS011;27385;51.096;17.190;2023-05-07T03:55:19;9.50;;;1.70;;
41705;SDS011;27385;51.096;17.190;2023-05-07T03:57:50;5.50;;;1.60;;
41705;SDS011;27385;51.096;17.190;2023-05-07T04:00:21;7.60;;;1.70;;
41705;SDS011;27385;51.096;17.190;2023-05-07T04:02:52;7.10;;;1.50;;
41705;SDS011;27385;51.096;17.190;2023-05-07T04:05:23;6.40;;;1.60;;
41705;SDS011;27385;51.096;17.190;2023-05-07T04:07:54;5.80;;;1.70;;
41705;SDS011;27385;51.096;17.190;2023-05-07T04:10:26;8.30;;;1.70;;
41705;SDS011;27385;51.096;17.190;2023-05-07T04:12:58;4.90;;;1.30;;
41705;SDS011;27385;51.096;17.190;2023-05-07T04:15:28;6.90;;;1.50;;
41705;SDS011;27385;51.096;17.190;2023-05-07T04:18:00;6.20;;;1.20;;
41705;SDS011;27385;51.096;17.190;2023-05-07T04:20:30;7.80;;;1.50;;
41705;SDS011;27385;51.096;17.190;2023-05-07T04:23:04;9.90;;;1.50;;
41705;SDS011;27385;51.096;17.190;2023-05-07T04:25:35;5.60;;;1.30;;
41705;SDS011;27385;51.096;17.190;2023-05-07T04:28:06;5.30;;;1.40;;
41705;SDS011;27385;51.096;17.190;2023-05-07T04:30:37;5.70;;;1.50;;
41705;SDS011;27385;51.096;17.190;2023-05-07T04:33:09;7.00;;;1.60;;
41705;SDS011;27385;51.096;17.190;2023-05-07T04:35:39;8.40;;;1.70;;
41705;SDS011;27385;51.096;17.190;2023-05-07T04:38:10;7.40;;;2.10;;
41705;SDS011;27385;51.096;17.190;2023-05-07T04:40:41;4.80;;;1.40;;
41705;SDS011;27385;51.096;17.190;2023-05-07T04:43:12;4.90;;;1.30;;
41705;SDS011;27385;51.096;17.190;2023-05-07T04:45:43;6.80;;;1.90;;
41705;SDS011;27385;51.096;17.190;2023-05-07T04:48:15;5.00;;;1.30;;
41705;SDS011;27385;51.096;17.190;2023-05-07T04:50:48;9.50;;;1.60;;
41705;SDS011;27385;51.096;17.190;2023-05-07T04:53:19;6.30;;;1.60;;
41705;SDS011;27385;51.096;17.190;2023-05-07T04:55:54;8.00;;;1.80;;
41705;SDS011;27385;51.096;17.190;2023-05-07T04:58:25;4.80;;;1.40;;
41705;SDS011;27385;51.096;17.190;2023-05-07T05:00:59;5.30;;;1.40;;
41705;SDS011;27385;51.096;17.190;2023-05-07T05:03:30;7.00;;;1.70;;
41705;SDS011;27385;51.096;17.190;2023-05-07T05:06:00;7.50;;;1.90;;
41705;SDS011;27385;51.096;17.190;2023-05-07T05:08:32;7.50;;;1.80;;
41705;SDS011;27385;51.096;17.190;2023-05-07T05:11:03;7.90;;;1.70;;
41705;SDS011;27385;51.096;17.190;2023-05-07T05:13:34;8.30;;;2.10;;
41705;SDS011;27385;51.096;17.190;2023-05-07T05:16:05;6.50;;;1.90;;
41705;SDS011;27385;51.096;17.190;2023-05-07T05:18:36;6.20;;;1.70;;
41705;SDS011;27385;51.096;17.190;2023-05-07T05:21:07;8.30;;;2.10;;
41705;SDS011;27385;51.096;17.190;2023-05-07T05:23:38;10.20;;;2.10;;
41705;SDS011;27385;51.096;17.190;2023-05-07T05:26:09;7.40;;;2.10;;
41705;SDS011;27385;51.096;17.190;2023-05-07T05:28:40;6.50;;;2.40;;
41705;SDS011;27385;51.096;17.190;2023-05-07T05:31:11;8.50;;;2.40;;
41705;SDS011;27385;51.096;17.190;2023-05-07T05:33:42;6.20;;;1.40;;
41705;SDS011;27385;51.096;17.190;2023-05-07T05:36:12;7.70;;;2.20;;
41705;SDS011;27385;51.096;17.190;2023-05-07T05:38:43;9.60;;;2.30;;
41705;SDS011;27385;51.096;17.190;2023-05-07T05:41:14;8.60;;;2.70;;
41705;SDS011;27385;51.096;17.190;2023-05-07T05:43:45;6.60;;;1.80;;
41705;SDS011;27385;51.096;17.190;2023-05-07T05:46:17;11.00;;;2.50;;
41705;SDS011;27385;51.096;17.190;2023-05-07T05:48:48;6.50;;;1.50;;
41705;SDS011;27385;51.096;17.190;2023-05-07T05:51:20;6.00;;;1.80;;
41705;SDS011;27385;51.096;17.190;2023-05-07T05:53:51;7.10;;;2.20;;
41705;SDS011;27385;51.096;17.190;2023-05-07T05:56:21;5.00;;;1.80;;
41705;SDS011;27385;51.096;17.190;2023-05-07T05:58:53;10.90;;;2.20;;
41705;SDS011;27385;51.096;17.190;2023-05-07T06:01:24;6.20;;;1.80;;
41705;SDS011;27385;51.096;17.190;2023-05-07T06:03:55;5.30;;;1.30;;
41705;SDS011;27385;51.096;17.190;2023-05-07T06:06:26;5.60;;;1.80;;
41705;SDS011;27385;51.096;17.190;2023-05-07T06:08:58;4.90;;;1.40;;
41705;SDS011;27385;51.096;17.190;2023-05-07T06:11:29;5.30;;;1.50;;
41705;SDS011;27385;51.096;17.190;2023-05-07T06:14:01;5.50;;;1.30;;
41705;SDS011;27385;51.096;17.190;2023-05-07T06:16:32;6.30;;;1.30;;
41705;SDS011;27385;51.096;17.190;2023-05-07T06:19:03;4.20;;;1.10;;
41705;SDS011;27385;51.096;17.190;2023-05-07T06:21:34;4.30;;;1.10;;
41705;SDS011;27385;51.096;17.190;2023-05-07T06:24:06;7.30;;;1.40;;
41705;SDS011;27385;51.096;17.190;2023-05-07T06:26:38;6.10;;;1.50;;
41705;SDS011;27385;51.096;17.190;2023-05-07T06:29:09;5.00;;;1.60;;
41705;SDS011;27385;51.096;17.190;2023-05-07T06:31:40;5.60;;;1.40;;
41705;SDS011;27385;51.096;17.190;2023-05-07T06:34:11;7.60;;;2.10;;
41705;SDS011;27385;51.096;17.190;2023-05-07T06:36:43;8.50;;;2.30;;
41705;SDS011;27385;51.096;17.190;2023-05-07T06:39:14;10.00;;;2.10;;
41705;SDS011;27385;51.096;17.190;2023-05-07T06:41:45;5.20;;;1.40;;
41705;SDS011;27385;51.096;17.190;2023-05-07T06:44:15;5.80;;;1.30;;
41705;SDS011;27385;51.096;17.190;2023-05-07T06:46:47;7.20;;;1.50;;
41705;SDS011;27385;51.096;17.190;2023-05-07T06:49:17;4.70;;;1.40;;
41705;SDS011;27385;51.096;17.190;2023-05-07T06:51:48;5.70;;;1.30;;
41705;SDS011;27385;51.096;17.190;2023-05-07T06:54:20;5.40;;;1.70;;
41705;SDS011;27385;51.096;17.190;2023-05-07T06:56:51;4.00;;;1.30;;
41705;SDS011;27385;51.096;17.190;2023-05-07T06:59:23;5.20;;;1.50;;
41705;SDS011;27385;51.096;17.190;2023-05-07T07:01:53;6.10;;;1.70;;
41705;SDS011;27385;51.096;17.190;2023-05-07T07:04:24;4.30;;;1.30;;
41705;SDS011;27385;51.096;17.190;2023-05-07T07:06:56;5.90;;;1.60;;
41705;SDS011;27385;51.096;17.190;2023-05-07T07:09:27;5.70;;;1.30;;
41705;SDS011;27385;51.096;17.190;2023-05-07T07:11:57;8.00;;;1.80;;
41705;SDS011;27385;51.096;17.190;2023-05-07T07:14:28;7.00;;;1.70;;
41705;SDS011;27385;51.096;17.190;2023-05-07T07:16:59;11.80;;;2.10;;
41705;SDS011;27385;51.096;17.190;2023-05-07T07:19:30;10.70;;;2.90;;
41705;SDS011;27385;51.096;17.190;2023-05-07T07:22:01;6.70;;;1.50;;
41705;SDS011;27385;51.096;17.190;2023-05-07T07:24:32;20.00;;;4.10;;
41705;SDS011;27385;51.096;17.190;2023-05-07T07:27:03;6.50;;;1.70;;
41705;SDS011;27385;51.096;17.190;2023-05-07T07:29:34;9.90;;;1.90;;
41705;SDS011;27385;51.096;17.190;2023-05-07T07:32:05;7.40;;;1.80;;
41705;SDS011;27385;51.096;17.190;2023-05-07T07:34:37;9.90;;;2.30;;
41705;SDS011;27385;51.096;17.190;2023-05-07T07:37:08;6.10;;;1.30;;
41705;SDS011;27385;51.096;17.190;2023-05-07T07:39:38;7.00;;;1.70;;
41705;SDS011;27385;51.096;17.190;2023-05-07T07:42:09;7.70;;;1.80;;
41705;SDS011;27385;51.096;17.190;2023-05-07T07:44:40;5.60;;;1.70;;
41705;SDS011;27385;51.096;17.190;2023-05-07T07:47:12;11.60;;;3.00;;
41705;SDS011;27385;51.096;17.190;2023-05-07T07:49:43;11.00;;;2.50;;
41705;SDS011;27385;51.096;17.190;2023-05-07T07:52:14;10.70;;;3.40;;
41705;SDS011;27385;51.096;17.190;2023-05-07T07:54:45;12.10;;;5.10;;
41705;SDS011;27385;51.096;17.190;2023-05-07T07:57:16;9.90;;;2.90;;
41705;SDS011;27385;51.096;17.190;2023-05-07T07:59:47;8.00;;;2.60;;
41705;SDS011;27385;51.096;17.190;2023-05-07T08:02:18;6.10;;;1.80;;
41705;SDS011;27385;51.096;17.190;2023-05-07T08:04:49;6.10;;;1.50;;
41705;SDS011;27385;51.096;17.190;2023-05-07T08:07:20;13.60;;;3.20;;
41705;SDS011;27385;51.096;17.190;2023-05-07T08:09:51;8.10;;;1.70;;
41705;SDS011;27385;51.096;17.190;2023-05-07T08:12:22;28.00;;;11.30;;
41705;SDS011;27385;51.096;17.190;2023-05-07T08:14:54;42.60;;;23.30;;
41705;SDS011;27385;51.096;17.190;2023-05-07T08:17:25;81.80;;;43.00;;
41705;SDS011;27385;51.096;17.190;2023-05-07T08:19:57;115.70;;;55.90;;
41705;SDS011;27385;51.096;17.190;2023-05-07T08:22:29;115.80;;;55.60;;
41705;SDS011;27385;51.096;17.190;2023-05-07T08:25:00;46.90;;;20.10;;
41705;SDS011;27385;51.096;17.190;2023-05-07T08:27:31;15.90;;;5.30;;
41705;SDS011;27385;51.096;17.190;2023-05-07T08:30:02;11.70;;;3.90;;
41705;SDS011;27385;51.096;17.190;2023-05-07T08:32:34;33.40;;;17.60;;
41705;SDS011;27385;51.096;17.190;2023-05-07T08:35:06;24.50;;;11.10;;
41705;SDS011;27385;51.096;17.190;2023-05-07T08:37:38;14.10;;;5.50;;
41705;SDS011;27385;51.096;17.190;2023-05-07T08:40:10;11.10;;;3.60;;
41705;SDS011;27385;51.096;17.190;2023-05-07T08:42:42;10.30;;;3.00;;
41705;SDS011;27385;51.096;17.190;2023-05-07T08:45:15;9.30;;;3.00;;
41705;SDS011;27385;51.096;17.190;2023-05-07T08:47:50;10.10;;;3.60;;
41705;SDS011;27385;51.096;17.190;2023-05-07T08:50:27;11.60;;;3.20;;
41705;SDS011;27385;51.096;17.190;2023-05-07T08:52:58;11.20;;;3.20;;
41705;SDS011;27385;51.096;17.190;2023-05-07T08:55:29;12.60;;;3.70;;
41705;SDS011;27385;51.096;17.190;2023-05-07T08:58:01;14.80;;;3.80;;
41705;SDS011;27385;51.096;17.190;2023-05-07T09:00:32;10.90;;;3.60;;
41705;SDS011;27385;51.096;17.190;2023-05-07T09:03:04;8.70;;;3.00;;
41705;SDS011;27385;51.096;17.190;2023-05-07T09:05:36;11.30;;;3.10;;
41705;SDS011;27385;51.096;17.190;2023-05-07T09:08:07;8.60;;;2.30;;
41705;SDS011;27385;51.096;17.190;2023-05-07T09:10:38;10.00;;;2.70;;
41705;SDS011;27385;51.096;17.190;2023-05-07T09:13:10;7.80;;;1.90;;
41705;SDS011;27385;51.096;17.190;2023-05-07T09:15:42;7.80;;;1.80;;
41705;SDS011;27385;51.096;17.190;2023-05-07T09:18:13;6.90;;;2.30;;
41705;SDS011;27385;51.096;17.190;2023-05-07T09:20:44;6.90;;;2.10;;
41705;SDS011;27385;51.096;17.190;2023-05-07T09:23:15;8.80;;;2.40;;
41705;SDS011;27385;51.096;17.190;2023-05-07T09:25:46;7.00;;;2.30;;
41705;SDS011;27385;51.096;17.190;2023-05-07T09:28:17;8.10;;;2.30;;
41705;SDS011;27385;51.096;17.190;2023-05-07T09:30:48;10.30;;;2.80;;
41705;SDS011;27385;51.096;17.190;2023-05-07T09:33:19;7.30;;;2.00;;
41705;SDS011;27385;51.096;17.190;2023-05-07T09:35:52;8.10;;;2.30;;
41705;SDS011;27385;51.096;17.190;2023-05-07T09:38:23;9.00;;;2.60;;
41705;SDS011;27385;51.096;17.190;2023-05-07T09:41:02;9.30;;;2.20;;
41705;SDS011;27385;51.096;17.190;2023-05-07T09:43:35;9.10;;;2.60;;
41705;SDS011;27385;51.096;17.190;2023-05-07T09:46:09;7.10;;;2.70;;
41705;SDS011;27385;51.096;17.190;2023-05-07T09:48:43;11.90;;;3.20;;
41705;SDS011;27385;51.096;17.190;2023-05-07T09:51:21;8.30;;;2.40;;
41705;SDS011;27385;51.096;17.190;2023-05-07T09:53:55;6.80;;;2.00;;
41705;SDS011;27385;51.096;17.190;2023-05-07T09:56:31;7.20;;;1.90;;
41705;SDS011;27385;51.096;17.190;2023-05-07T09:59:03;7.60;;;2.40;;
41705;SDS011;27385;51.096;17.190;2023-05-07T10:01:35;7.70;;;2.10;;
41705;SDS011;27385;51.096;17.190;2023-05-07T10:04:07;9.40;;;2.80;;
41705;SDS011;27385;51.096;17.190;2023-05-07T10:06:39;7.60;;;1.90;;
41705;SDS011;27385;51.096;17.190;2023-05-07T10:09:11;8.60;;;2.00;;
41705;SDS011;27385;51.096;17.190;2023-05-07T10:11:44;6.70;;;1.80;;
41705;SDS011;27385;51.096;17.190;2023-05-07T10:14:17;8.50;;;2.00;;
41705;SDS011;27385;51.096;17.190;2023-05-07T10:16:50;9.30;;;2.50;;
41705;SDS011;27385;51.096;17.190;2023-05-07T10:19:22;9.80;;;2.70;;
41705;SDS011;27385;51.096;17.190;2023-05-07T10:21:55;6.90;;;2.00;;
41705;SDS011;27385;51.096;17.190;2023-05-07T10:24:31;12.50;;;2.20;;
41705;SDS011;27385;51.096;17.190;2023-05-07T10:27:05;6.90;;;1.90;;
41705;SDS011;27385;51.096;17.190;2023-05-07T10:29:45;7.50;;;1.70;;
41705;SDS011;27385;51.096;17.190;2023-05-07T10:32:33;6.10;;;1.80;;
41705;SDS011;27385;51.096;17.190;2023-05-07T10:35:09;6.70;;;1.60;;
41705;SDS011;27385;51.096;17.190;2023-05-07T10:37:44;7.30;;;1.70;;
41705;SDS011;27385;51.096;17.190;2023-05-07T10:40:16;5.60;;;1.60;;
41705;SDS011;27385;51.096;17.190;2023-05-07T10:42:55;7.50;;;2.00;;
41705;SDS011;27385;51.096;17.190;2023-05-07T10:45:27;8.80;;;2.00;;
41705;SDS011;27385;51.096;17.190;2023-05-07T10:48:08;6.30;;;2.00;;
41705;SDS011;27385;51.096;17.190;2023-05-07T10:50:40;7.80;;;2.00;;
41705;SDS011;27385;51.096;17.190;2023-05-07T10:53:21;8.60;;;2.10;;
41705;SDS011;27385;51.096;17.190;2023-05-07T10:58:56;6.90;;;1.70;;
41705;SDS011;27385;51.096;17.190;2023-05-07T11:02:11;9.30;;;2.10;;
41705;SDS011;27385;51.096;17.190;2023-05-07T11:04:43;6.10;;;1.70;;
41705;SDS011;27385;51.096;17.190;2023-05-07T11:09:59;6.00;;;1.60;;
41705;SDS011;27385;51.096;17.190;2023-05-07T11:12:48;8.10;;;2.20;;
41705;SDS011;27385;51.096;17.190;2023-05-07T11:15:43;7.60;;;1.80;;
41705;SDS011;27385;51.096;17.190;2023-05-07T11:18:15;6.70;;;1.70;;
41705;SDS011;27385;51.096;17.190;2023-05-07T11:20:54;6.00;;;1.80;;
41705;SDS011;27385;51.096;17.190;2023-05-07T11:26:48;6.40;;;2.10;;
41705;SDS011;27385;51.096;17.190;2023-05-07T11:29:19;6.90;;;1.60;;
41705;SDS011;27385;51.096;17.190;2023-05-07T11:31:51;6.40;;;1.50;;
41705;SDS011;27385;51.096;17.190;2023-05-07T11:34:24;5.80;;;1.40;;
41705;SDS011;27385;51.096;17.190;2023-05-07T11:36:55;6.20;;;1.60;;
41705;SDS011;27385;51.096;17.190;2023-05-07T11:39:28;10.00;;;2.60;;
41705;SDS011;27385;51.096;17.190;2023-05-07T11:42:01;6.50;;;1.80;;
41705;SDS011;27385;51.096;17.190;2023-05-07T11:44:42;7.50;;;2.00;;
41705;SDS011;27385;51.096;17.190;2023-05-07T11:47:18;7.50;;;2.00;;
41705;SDS011;27385;51.096;17.190;2023-05-07T11:49:50;11.80;;;3.30;;
41705;SDS011;27385;51.096;17.190;2023-05-07T11:52:23;6.30;;;1.60;;
41705;SDS011;27385;51.096;17.190;2023-05-07T11:54:55;10.40;;;1.70;;
41705;SDS011;27385;51.096;17.190;2023-05-07T11:57:27;7.10;;;1.70;;
41705;SDS011;27385;51.096;17.190;2023-05-07T11:59:59;5.90;;;1.70;;
41705;SDS011;27385;51.096;17.190;2023-05-07T12:02:31;17.20;;;4.00;;
41705;SDS011;27385;51.096;17.190;2023-05-07T12:05:03;9.80;;;2.50;;
41705;SDS011;27385;51.096;17.190;2023-05-07T12:07:34;20.90;;;5.00;;
41705;SDS011;27385;51.096;17.190;2023-05-07T12:10:06;15.50;;;3.80;;
41705;SDS011;27385;51.096;17.190;2023-05-07T12:12:40;4.80;;;1.50;;
41705;SDS011;27385;51.096;17.190;2023-05-07T12:15:16;6.30;;;1.90;;
41705;SDS011;27385;51.096;17.190;2023-05-07T12:17:51;6.10;;;1.80;;
41705;SDS011;27385;51.096;17.190;2023-05-07T12:20:23;6.80;;;2.10;;
41705;SDS011;27385;51.096;17.190;2023-05-07T12:22:55;6.50;;;1.60;;
41705;SDS011;27385;51.096;17.190;2023-05-07T12:25:26;9.90;;;2.20;;
41705;SDS011;27385;51.096;17.190;2023-05-07T12:27:59;8.10;;;1.90;;
41705;SDS011;27385;51.096;17.190;2023-05-07T12:30:32;9.60;;;2.40;;
41705;SDS011;27385;51.096;17.190;2023-05-07T12:33:07;10.50;;;3.70;;
41705;SDS011;27385;51.096;17.190;2023-05-07T12:35:39;8.00;;;2.50;;
41705;SDS011;27385;51.096;17.190;2023-05-07T12:38:12;7.60;;;2.00;;
41705;SDS011;27385;51.096;17.190;2023-05-07T12:40:45;5.50;;;1.60;;
41705;SDS011;27385;51.096;17.190;2023-05-07T12:43:19;5.50;;;1.60;;
41705;SDS011;27385;51.096;17.190;2023-05-07T12:45:53;8.40;;;1.80;;
41705;SDS011;27385;51.096;17.190;2023-05-07T12:48:25;8.30;;;2.00;;
41705;SDS011;27385;51.096;17.190;2023-05-07T12:50:56;9.20;;;2.20;;
41705;SDS011;27385;51.096;17.190;2023-05-07T12:53:28;7.40;;;2.00;;
41705;SDS011;27385;51.096;17.190;2023-05-07T12:56:00;8.00;;;1.80;;
41705;SDS011;27385;51.096;17.190;2023-05-07T12:58:33;6.60;;;1.70;;
41705;SDS011;27385;51.096;17.190;2023-05-07T13:01:05;6.30;;;1.80;;
41705;SDS011;27385;51.096;17.190;2023-05-07T13:03:37;6.30;;;1.90;;
41705;SDS011;27385;51.096;17.190;2023-05-07T13:06:09;9.10;;;2.20;;
41705;SDS011;27385;51.096;17.190;2023-05-07T13:08:41;7.40;;;2.20;;
41705;SDS011;27385;51.096;17.190;2023-05-07T13:11:12;9.80;;;2.60;;
41705;SDS011;27385;51.096;17.190;2023-05-07T13:13:43;5.90;;;1.80;;
41705;SDS011;27385;51.096;17.190;2023-05-07T13:16:14;7.70;;;1.50;;
41705;SDS011;27385;51.096;17.190;2023-05-07T13:18:45;6.50;;;1.70;;
41705;SDS011;27385;51.096;17.190;2023-05-07T13:21:16;7.60;;;2.00;;
41705;SDS011;27385;51.096;17.190;2023-05-07T13:23:47;7.90;;;2.10;;
41705;SDS011;27385;51.096;17.190;2023-05-07T13:26:18;7.90;;;1.70;;
41705;SDS011;27385;51.096;17.190;2023-05-07T13:28:49;5.80;;;1.50;;
41705;SDS011;27385;51.096;17.190;2023-05-07T13:31:20;6.10;;;1.40;;
41705;SDS011;27385;51.096;17.190;2023-05-07T13:33:51;18.20;;;6.80;;
41705;SDS011;27385;51.096;17.190;2023-05-07T13:36:23;30.30;;;13.80;;
41705;SDS011;27385;51.096;17.190;2023-05-07T13:38:54;52.10;;;24.70;;
41705;SDS011;27385;51.096;17.190;2023-05-07T13:41:27;47.30;;;24.20;;
41705;SDS011;27385;51.096;17.190;2023-05-07T13:43:58;48.90;;;21.70;;
41705;SDS011;27385;51.096;17.190;2023-05-07T13:46:29;59.20;;;23.60;;
41705;SDS011;27385;51.096;17.190;2023-05-07T13:49:00;42.70;;;15.90;;
41705;SDS011;27385;51.096;17.190;2023-05-07T13:51:32;33.40;;;11.00;;
41705;SDS011;27385;51.096;17.190;2023-05-07T13:54:03;23.00;;;8.20;;
41705;SDS011;27385;51.096;17.190;2023-05-07T13:56:35;23.30;;;8.30;;
41705;SDS011;27385;51.096;17.190;2023-05-07T13:59:06;14.10;;;4.80;;
41705;SDS011;27385;51.096;17.190;2023-05-07T14:01:42;12.30;;;2.80;;
41705;SDS011;27385;51.096;17.190;2023-05-07T14:04:12;9.10;;;2.50;;
41705;SDS011;27385;51.096;17.190;2023-05-07T14:06:43;4.60;;;1.50;;
41705;SDS011;27385;51.096;17.190;2023-05-07T14:09:14;16.00;;;3.70;;
41705;SDS011;27385;51.096;17.190;2023-05-07T14:11:46;13.80;;;3.50;;
41705;SDS011;27385;51.096;17.190;2023-05-07T14:14:19;15.90;;;3.60;;
41705;SDS011;27385;51.096;17.190;2023-05-07T14:16:50;10.90;;;3.00;;
41705;SDS011;27385;51.096;17.190;2023-05-07T14:19:21;11.50;;;3.20;;
41705;SDS011;27385;51.096;17.190;2023-05-07T14:21:51;13.40;;;4.00;;
41705;SDS011;27385;51.096;17.190;2023-05-07T14:24:23;10.60;;;3.20;;
41705;SDS011;27385;51.096;17.190;2023-05-07T14:26:55;8.10;;;1.90;;
41705;SDS011;27385;51.096;17.190;2023-05-07T14:29:31;9.50;;;2.70;;
41705;SDS011;27385;51.096;17.190;2023-05-07T14:32:03;8.80;;;2.70;;
41705;SDS011;27385;51.096;17.190;2023-05-07T14:34:34;10.20;;;2.70;;
41705;SDS011;27385;51.096;17.190;2023-05-07T14:37:05;8.90;;;2.20;;
41705;SDS011;27385;51.096;17.190;2023-05-07T14:39:36;12.20;;;2.50;;
41705;SDS011;27385;51.096;17.190;2023-05-07T14:42:07;7.00;;;2.20;;
41705;SDS011;27385;51.096;17.190;2023-05-07T14:44:40;6.70;;;1.80;;
41705;SDS011;27385;51.096;17.190;2023-05-07T14:47:12;15.60;;;4.60;;
41705;SDS011;27385;51.096;17.190;2023-05-07T14:49:43;6.30;;;1.80;;
41705;SDS011;27385;51.096;17.190;2023-05-07T14:52:15;10.50;;;3.60;;
41705;SDS011;27385;51.096;17.190;2023-05-07T14:54:46;9.50;;;2.60;;
41705;SDS011;27385;51.096;17.190;2023-05-07T14:57:17;15.30;;;4.20;;
41705;SDS011;27385;51.096;17.190;2023-05-07T14:59:48;16.90;;;5.10;;
41705;SDS011;27385;51.096;17.190;2023-05-07T15:02:19;17.10;;;4.70;;
41705;SDS011;27385;51.096;17.190;2023-05-07T15:04:50;12.80;;;3.40;;
41705;SDS011;27385;51.096;17.190;2023-05-07T15:07:21;13.80;;;3.40;;